sensor_id;sensor_type;location;lat;lon;timestamp;temperature;humidity
52044;DHT22;38053;53.100;6.078;2022-08-14T00:00:52;22.00;95.30
52044;DHT22;38053;53.100;6.078;2022-08-14T00:03:24;22.00;95.40
52044;DHT22;38053;53.100;6.078;2022-08-14T00:05:51;22.00;95.60
52044;DHT22;38053;53.100;6.078;2022-08-14T00:08:17;21.90;95.60
52044;DHT22;38053;53.100;6.078;2022-08-14T00:10:43;21.90;95.90
52044;DHT22;38053;53.100;6.078;2022-08-14T00:13:09;21.80;95.90
52044;DHT22;38053;53.100;6.078;2022-08-14T00:15:39;21.80;96.10
52044;DHT22;38053;53.100;6.078;2022-08-14T00:18:07;21.80;96.20
52044;DHT22;38053;53.100;6.078;2022-08-14T00:20:35;21.80;96.40
52044;DHT22;38053;53.100;6.078;2022-08-14T00:23:02;21.70;96.70
52044;DHT22;38053;53.100;6.078;2022-08-14T00:25:27;21.70;96.60
52044;DHT22;38053;53.100;6.078;2022-08-14T00:27:54;21.70;96.70
52044;DHT22;38053;53.100;6.078;2022-08-14T00:30:20;21.70;96.90
52044;DHT22;38053;53.100;6.078;2022-08-14T00:32:46;21.60;97.00
52044;DHT22;38053;53.100;6.078;2022-08-14T00:35:12;21.60;97.10
52044;DHT22;38053;53.100;6.078;2022-08-14T00:37:43;21.60;97.30
52044;DHT22;38053;53.100;6.078;2022-08-14T00:40:12;21.60;97.40
52044;DHT22;38053;53.100;6.078;2022-08-14T00:42:39;21.60;97.60
52044;DHT22;38053;53.100;6.078;2022-08-14T00:45:07;21.60;97.70
52044;DHT22;38053;53.100;6.078;2022-08-14T00:47:33;21.50;97.90
52044;DHT22;38053;53.100;6.078;2022-08-14T00:50:01;21.50;98.00
52044;DHT22;38053;53.100;6.078;2022-08-14T00:52:27;21.50;98.10
52044;DHT22;38053;53.100;6.078;2022-08-14T00:54:53;21.50;98.20
52044;DHT22;38053;53.100;6.078;2022-08-14T00:57:30;21.50;98.40
52044;DHT22;38053;53.100;6.078;2022-08-14T00:59:57;21.50;98.50
52044;DHT22;38053;53.100;6.078;2022-08-14T01:02:25;21.40;98.50
52044;DHT22;38053;53.100;6.078;2022-08-14T01:04:54;21.40;98.80
52044;DHT22;38053;53.100;6.078;2022-08-14T01:07:21;21.30;99.20
52044;DHT22;38053;53.100;6.078;2022-08-14T01:09:53;21.30;99.30
52044;DHT22;38053;53.100;6.078;2022-08-14T01:12:20;21.30;99.50
52044;DHT22;38053;53.100;6.078;2022-08-14T01:14:46;21.20;99.60
52044;DHT22;38053;53.100;6.078;2022-08-14T01:17:16;21.20;99.70
52044;DHT22;38053;53.100;6.078;2022-08-14T01:19:42;21.20;99.90
52044;DHT22;38053;53.100;6.078;2022-08-14T01:22:26;21.10;99.90
52044;DHT22;38053;53.100;6.078;2022-08-14T01:24:51;21.10;99.90
52044;DHT22;38053;53.100;6.078;2022-08-14T01:27:19;21.00;99.90
52044;DHT22;38053;53.100;6.078;2022-08-14T01:29:49;21.00;99.90
52044;DHT22;38053;53.100;6.078;2022-08-14T01:32:19;21.00;99.90
52044;DHT22;38053;53.100;6.078;2022-08-14T01:34:53;21.00;99.90
52044;DHT22;38053;53.100;6.078;2022-08-14T01:37:20;20.90;99.90
52044;DHT22;38053;53.100;6.078;2022-08-14T01:39:52;20.90;99.90
52044;DHT22;38053;53.100;6.078;2022-08-14T01:42:18;20.90;99.90
52044;DHT22;38053;53.100;6.078;2022-08-14T01:44:45;20.80;99.90
52044;DHT22;38053;53.100;6.078;2022-08-14T01:47:15;20.80;99.90
52044;DHT22;38053;53.100;6.078;2022-08-14T01:49:41;20.80;99.90
52044;DHT22;38053;53.100;6.078;2022-08-14T01:52:07;20.80;99.90
52044;DHT22;38053;53.100;6.078;2022-08-14T01:54:33;20.70;99.90
52044;DHT22;38053;53.100;6.078;2022-08-14T01:56:59;20.70;99.90
52044;DHT22;38053;53.100;6.078;2022-08-14T01:59:29;20.70;99.90
52044;DHT22;38053;53.100;6.078;2022-08-14T02:02:02;20.60;99.90
52044;DHT22;38053;53.100;6.078;2022-08-14T02:04:34;20.70;99.90
52044;DHT22;38053;53.100;6.078;2022-08-14T02:07:01;20.60;99.90
52044;DHT22;38053;53.100;6.078;2022-08-14T02:09:27;20.60;99.90
52044;DHT22;38053;53.100;6.078;2022-08-14T02:11:55;20.60;99.90
52044;DHT22;38053;53.100;6.078;2022-08-14T02:14:21;20.60;99.90
52044;DHT22;38053;53.100;6.078;2022-08-14T02:16:49;20.50;99.90
52044;DHT22;38053;53.100;6.078;2022-08-14T02:19:21;20.50;99.90
52044;DHT22;38053;53.100;6.078;2022-08-14T02:21:49;20.50;99.90
52044;DHT22;38053;53.100;6.078;2022-08-14T02:24:17;20.40;99.90
52044;DHT22;38053;53.100;6.078;2022-08-14T02:26:44;20.50;99.90
52044;DHT22;38053;53.100;6.078;2022-08-14T02:29:18;20.40;99.90
52044;DHT22;38053;53.100;6.078;2022-08-14T02:31:48;20.40;99.90
52044;DHT22;38053;53.100;6.078;2022-08-14T02:34:19;20.40;99.90
52044;DHT22;38053;53.100;6.078;2022-08-14T02:36:47;20.40;99.90
52044;DHT22;38053;53.100;6.078;2022-08-14T02:39:14;20.40;99.90
52044;DHT22;38053;53.100;6.078;2022-08-14T02:41:40;20.30;99.90
52044;DHT22;38053;53.100;6.078;2022-08-14T02:44:09;20.30;99.90
52044;DHT22;38053;53.100;6.078;2022-08-14T02:46:36;20.30;99.90
52044;DHT22;38053;53.100;6.078;2022-08-14T02:49:03;20.30;99.90
52044;DHT22;38053;53.100;6.078;2022-08-14T02:51:31;20.30;99.90
52044;DHT22;38053;53.100;6.078;2022-08-14T02:53:57;20.30;99.90
52044;DHT22;38053;53.100;6.078;2022-08-14T02:56:23;20.20;99.90
52044;DHT22;38053;53.100;6.078;2022-08-14T02:58:53;20.20;99.90
52044;DHT22;38053;53.100;6.078;2022-08-14T03:01:21;20.20;99.90
52044;DHT22;38053;53.100;6.078;2022-08-14T03:03:48;20.20;99.90
52044;DHT22;38053;53.100;6.078;2022-08-14T03:06:15;20.20;99.90
52044;DHT22;38053;53.100;6.078;2022-08-14T03:08:42;20.10;99.90
52044;DHT22;38053;53.100;6.078;2022-08-14T03:11:10;20.10;99.90
52044;DHT22;38053;53.100;6.078;2022-08-14T03:13:38;20.10;99.90
52044;DHT22;38053;53.100;6.078;2022-08-14T03:16:06;20.10;99.90
52044;DHT22;38053;53.100;6.078;2022-08-14T03:18:32;20.10;99.90
52044;DHT22;38053;53.100;6.078;2022-08-14T03:21:00;20.00;99.90
52044;DHT22;38053;53.100;6.078;2022-08-14T03:23:26;20.00;99.90
52044;DHT22;38053;53.100;6.078;2022-08-14T03:25:52;20.00;99.90
52044;DHT22;38053;53.100;6.078;2022-08-14T03:28:18;19.90;99.90
52044;DHT22;38053;53.100;6.078;2022-08-14T03:30:43;19.90;99.90
52044;DHT22;38053;53.100;6.078;2022-08-14T03:33:11;19.80;99.90
52044;DHT22;38053;53.100;6.078;2022-08-14T03:35:40;19.90;99.90
52044;DHT22;38053;53.100;6.078;2022-08-14T03:38:08;19.80;99.90
52044;DHT22;38053;53.100;6.078;2022-08-14T03:40:35;19.80;99.90
52044;DHT22;38053;53.100;6.078;2022-08-14T03:43:09;19.70;99.90
52044;DHT22;38053;53.100;6.078;2022-08-14T03:45:38;19.70;99.90
52044;DHT22;38053;53.100;6.078;2022-08-14T03:48:13;19.70;99.90
52044;DHT22;38053;53.100;6.078;2022-08-14T03:50:42;19.60;99.90
52044;DHT22;38053;53.100;6.078;2022-08-14T03:53:09;19.60;99.90
52044;DHT22;38053;53.100;6.078;2022-08-14T03:55:36;19.60;99.90
52044;DHT22;38053;53.100;6.078;2022-08-14T03:58:06;19.60;99.90
52044;DHT22;38053;53.100;6.078;2022-08-14T04:00:33;19.60;99.90
52044;DHT22;38053;53.100;6.078;2022-08-14T04:03:01;19.50;99.90
52044;DHT22;38053;53.100;6.078;2022-08-14T04:05:28;19.50;99.90
52044;DHT22;38053;53.100;6.078;2022-08-14T04:07:54;19.50;99.90
52044;DHT22;38053;53.100;6.078;2022-08-14T04:10:20;19.40;99.90
52044;DHT22;38053;53.100;6.078;2022-08-14T04:12:46;19.50;99.90
52044;DHT22;38053;53.100;6.078;2022-08-14T04:15:11;19.40;99.90
52044;DHT22;38053;53.100;6.078;2022-08-14T04:17:39;19.40;99.90
52044;DHT22;38053;53.100;6.078;2022-08-14T04:20:08;19.40;99.90
52044;DHT22;38053;53.100;6.078;2022-08-14T04:22:34;19.40;99.90
52044;DHT22;38053;53.100;6.078;2022-08-14T04:25:01;19.40;99.90
52044;DHT22;38053;53.100;6.078;2022-08-14T04:27:27;19.40;99.90
52044;DHT22;38053;53.100;6.078;2022-08-14T04:29:54;19.30;99.90
52044;DHT22;38053;53.100;6.078;2022-08-14T04:32:22;19.30;99.90
52044;DHT22;38053;53.100;6.078;2022-08-14T04:34:51;19.30;99.90
52044;DHT22;38053;53.100;6.078;2022-08-14T04:37:24;19.30;99.90
52044;DHT22;38053;53.100;6.078;2022-08-14T04:40:08;19.30;99.90
52044;DHT22;38053;53.100;6.078;2022-08-14T04:42:54;19.30;99.90
52044;DHT22;38053;53.100;6.078;2022-08-14T04:45:39;19.30;99.90
52044;DHT22;38053;53.100;6.078;2022-08-14T04:48:10;19.30;99.90
52044;DHT22;38053;53.100;6.078;2022-08-14T04:50:43;19.30;99.90
52044;DHT22;38053;53.100;6.078;2022-08-14T04:53:14;19.30;99.90
52044;DHT22;38053;53.100;6.078;2022-08-14T04:55:45;19.30;99.90
52044;DHT22;38053;53.100;6.078;2022-08-14T04:58:14;19.30;99.90
52044;DHT22;38053;53.100;6.078;2022-08-14T05:00:40;19.30;99.90
52044;DHT22;38053;53.100;6.078;2022-08-14T05:03:06;19.30;99.90
52044;DHT22;38053;53.100;6.078;2022-08-14T05:05:33;19.40;99.90
52044;DHT22;38053;53.100;6.078;2022-08-14T05:08:09;19.40;99.90
52044;DHT22;38053;53.100;6.078;2022-08-14T05:10:46;19.40;99.90
52044;DHT22;38053;53.100;6.078;2022-08-14T05:13:13;19.40;99.90
52044;DHT22;38053;53.100;6.078;2022-08-14T05:15:40;19.50;99.90
52044;DHT22;38053;53.100;6.078;2022-08-14T05:18:18;19.50;99.90
52044;DHT22;38053;53.100;6.078;2022-08-14T05:20:50;19.50;99.90
52044;DHT22;38053;53.100;6.078;2022-08-14T05:23:21;19.60;99.90
52044;DHT22;38053;53.100;6.078;2022-08-14T05:25:49;19.60;99.90
52044;DHT22;38053;53.100;6.078;2022-08-14T05:28:20;19.70;99.90
52044;DHT22;38053;53.100;6.078;2022-08-14T05:30:48;19.70;99.90
52044;DHT22;38053;53.100;6.078;2022-08-14T05:33:16;19.70;99.90
52044;DHT22;38053;53.100;6.078;2022-08-14T05:35:44;19.70;99.90
52044;DHT22;38053;53.100;6.078;2022-08-14T05:38:11;19.80;99.90
52044;DHT22;38053;53.100;6.078;2022-08-14T05:40:39;19.80;99.90
52044;DHT22;38053;53.100;6.078;2022-08-14T05:43:06;19.80;99.90
52044;DHT22;38053;53.100;6.078;2022-08-14T05:45:32;19.90;99.90
52044;DHT22;38053;53.100;6.078;2022-08-14T05:48:00;19.90;99.90
52044;DHT22;38053;53.100;6.078;2022-08-14T05:50:26;20.00;99.90
52044;DHT22;38053;53.100;6.078;2022-08-14T05:52:52;20.00;99.90
52044;DHT22;38053;53.100;6.078;2022-08-14T05:55:19;20.00;99.90
52044;DHT22;38053;53.100;6.078;2022-08-14T05:58:06;20.10;99.90
52044;DHT22;38053;53.100;6.078;2022-08-14T06:00:40;20.20;99.90
52044;DHT22;38053;53.100;6.078;2022-08-14T06:03:19;20.20;99.90
52044;DHT22;38053;53.100;6.078;2022-08-14T06:05:46;20.20;99.90
52044;DHT22;38053;53.100;6.078;2022-08-14T06:08:18;20.30;99.90
52044;DHT22;38053;53.100;6.078;2022-08-14T06:10:44;20.40;99.90
52044;DHT22;38053;53.100;6.078;2022-08-14T06:13:11;20.40;99.90
52044;DHT22;38053;53.100;6.078;2022-08-14T06:15:37;20.50;99.90
52044;DHT22;38053;53.100;6.078;2022-08-14T06:18:03;20.50;99.90
52044;DHT22;38053;53.100;6.078;2022-08-14T06:20:29;20.60;99.90
52044;DHT22;38053;53.100;6.078;2022-08-14T06:22:55;20.70;99.90
52044;DHT22;38053;53.100;6.078;2022-08-14T06:25:21;20.70;99.90
52044;DHT22;38053;53.100;6.078;2022-08-14T06:27:47;20.80;99.90
52044;DHT22;38053;53.100;6.078;2022-08-14T06:30:19;20.90;99.90
52044;DHT22;38053;53.100;6.078;2022-08-14T06:32:45;21.00;99.90
52044;DHT22;38053;53.100;6.078;2022-08-14T06:35:12;21.00;99.90
52044;DHT22;38053;53.100;6.078;2022-08-14T06:37:45;21.10;99.90
52044;DHT22;38053;53.100;6.078;2022-08-14T06:40:14;21.20;99.90
52044;DHT22;38053;53.100;6.078;2022-08-14T06:42:40;21.20;99.90
52044;DHT22;38053;53.100;6.078;2022-08-14T06:45:07;21.30;99.90
52044;DHT22;38053;53.100;6.078;2022-08-14T06:47:40;21.40;99.90
52044;DHT22;38053;53.100;6.078;2022-08-14T06:50:08;21.50;99.90
52044;DHT22;38053;53.100;6.078;2022-08-14T06:52:35;21.60;99.90
52044;DHT22;38053;53.100;6.078;2022-08-14T06:55:01;21.70;99.90
52044;DHT22;38053;53.100;6.078;2022-08-14T06:57:37;21.70;99.90
52044;DHT22;38053;53.100;6.078;2022-08-14T07:00:06;21.80;99.90
52044;DHT22;38053;53.100;6.078;2022-08-14T07:02:32;21.90;99.90
52044;DHT22;38053;53.100;6.078;2022-08-14T07:05:16;21.90;99.90
52044;DHT22;38053;53.100;6.078;2022-08-14T07:08:00;22.00;99.90
52044;DHT22;38053;53.100;6.078;2022-08-14T07:10:26;22.10;99.90
52044;DHT22;38053;53.100;6.078;2022-08-14T07:12:52;22.20;99.90
52044;DHT22;38053;53.100;6.078;2022-08-14T07:15:18;22.30;99.90
52044;DHT22;38053;53.100;6.078;2022-08-14T07:17:47;22.40;99.90
52044;DHT22;38053;53.100;6.078;2022-08-14T07:20:14;22.50;99.90
52044;DHT22;38053;53.100;6.078;2022-08-14T07:22:40;22.60;99.90
52044;DHT22;38053;53.100;6.078;2022-08-14T07:25:06;22.60;99.90
52044;DHT22;38053;53.100;6.078;2022-08-14T07:27:32;22.70;99.90
52044;DHT22;38053;53.100;6.078;2022-08-14T07:29:57;22.80;99.90
52044;DHT22;38053;53.100;6.078;2022-08-14T07:32:23;22.80;99.90
52044;DHT22;38053;53.100;6.078;2022-08-14T07:34:49;22.90;99.90
52044;DHT22;38053;53.100;6.078;2022-08-14T07:37:14;23.00;99.90
52044;DHT22;38053;53.100;6.078;2022-08-14T07:39:40;23.00;99.90
52044;DHT22;38053;53.100;6.078;2022-08-14T07:42:06;23.10;99.90
52044;DHT22;38053;53.100;6.078;2022-08-14T07:44:32;23.20;99.90
52044;DHT22;38053;53.100;6.078;2022-08-14T07:46:58;23.20;99.90
52044;DHT22;38053;53.100;6.078;2022-08-14T07:49:24;23.30;99.90
52044;DHT22;38053;53.100;6.078;2022-08-14T07:51:51;23.30;99.90
52044;DHT22;38053;53.100;6.078;2022-08-14T07:54:17;23.40;99.90
52044;DHT22;38053;53.100;6.078;2022-08-14T07:56:43;23.50;99.90
52044;DHT22;38053;53.100;6.078;2022-08-14T07:59:10;23.50;99.90
52044;DHT22;38053;53.100;6.078;2022-08-14T08:01:35;23.60;99.90
52044;DHT22;38053;53.100;6.078;2022-08-14T08:04:02;23.70;99.90
52044;DHT22;38053;53.100;6.078;2022-08-14T08:06:28;23.80;99.90
52044;DHT22;38053;53.100;6.078;2022-08-14T08:08:57;23.90;99.90
52044;DHT22;38053;53.100;6.078;2022-08-14T08:11:25;24.00;99.90
52044;DHT22;38053;53.100;6.078;2022-08-14T08:13:52;24.10;99.90
52044;DHT22;38053;53.100;6.078;2022-08-14T08:16:19;24.30;99.90
52044;DHT22;38053;53.100;6.078;2022-08-14T08:18:48;24.40;99.90
52044;DHT22;38053;53.100;6.078;2022-08-14T08:21:15;24.50;99.90
52044;DHT22;38053;53.100;6.078;2022-08-14T08:23:40;24.70;99.90
52044;DHT22;38053;53.100;6.078;2022-08-14T08:26:06;24.70;99.90
52044;DHT22;38053;53.100;6.078;2022-08-14T08:28:32;24.90;99.90
52044;DHT22;38053;53.100;6.078;2022-08-14T08:31:02;25.00;99.90
52044;DHT22;38053;53.100;6.078;2022-08-14T08:33:34;25.20;99.90
52044;DHT22;38053;53.100;6.078;2022-08-14T08:36:08;25.30;99.90
52044;DHT22;38053;53.100;6.078;2022-08-14T08:38:35;25.30;99.90
52044;DHT22;38053;53.100;6.078;2022-08-14T08:41:01;25.50;99.90
52044;DHT22;38053;53.100;6.078;2022-08-14T08:43:30;25.50;99.90
52044;DHT22;38053;53.100;6.078;2022-08-14T08:48:26;25.80;99.90
52044;DHT22;38053;53.100;6.078;2022-08-14T08:51:01;25.90;99.90
52044;DHT22;38053;53.100;6.078;2022-08-14T08:53:32;26.00;99.90
52044;DHT22;38053;53.100;6.078;2022-08-14T08:55:59;26.10;99.90
52044;DHT22;38053;53.100;6.078;2022-08-14T08:58:25;26.20;99.90
52044;DHT22;38053;53.100;6.078;2022-08-14T09:00:53;26.30;99.90
52044;DHT22;38053;53.100;6.078;2022-08-14T09:03:21;26.40;99.90
52044;DHT22;38053;53.100;6.078;2022-08-14T09:05:55;26.60;99.90
52044;DHT22;38053;53.100;6.078;2022-08-14T09:08:26;26.60;99.90
52044;DHT22;38053;53.100;6.078;2022-08-14T09:10:54;26.70;99.90
52044;DHT22;38053;53.100;6.078;2022-08-14T09:13:21;26.90;99.90
52044;DHT22;38053;53.100;6.078;2022-08-14T09:15:49;27.00;99.90
52044;DHT22;38053;53.100;6.078;2022-08-14T09:18:17;27.10;99.90
52044;DHT22;38053;53.100;6.078;2022-08-14T09:20:45;27.20;99.90
52044;DHT22;38053;53.100;6.078;2022-08-14T09:23:12;27.20;99.90
52044;DHT22;38053;53.100;6.078;2022-08-14T09:25:40;27.30;99.90
52044;DHT22;38053;53.100;6.078;2022-08-14T09:28:07;27.50;99.90
52044;DHT22;38053;53.100;6.078;2022-08-14T09:30:36;27.60;99.90
52044;DHT22;38053;53.100;6.078;2022-08-14T09:33:21;27.80;99.90
52044;DHT22;38053;53.100;6.078;2022-08-14T09:41:53;28.10;99.90
52044;DHT22;38053;53.100;6.078;2022-08-14T09:50:27;28.40;98.90
52044;DHT22;38053;53.100;6.078;2022-08-14T09:53:05;28.50;99.70
52044;DHT22;38053;53.100;6.078;2022-08-14T09:55:32;28.60;99.30
52044;DHT22;38053;53.100;6.078;2022-08-14T09:58:16;28.80;97.90
52044;DHT22;38053;53.100;6.078;2022-08-14T10:00:44;29.00;98.60
52044;DHT22;38053;53.100;6.078;2022-08-14T10:03:10;29.00;97.80
52044;DHT22;38053;53.100;6.078;2022-08-14T10:05:37;29.00;97.20
52044;DHT22;38053;53.100;6.078;2022-08-14T10:08:04;29.10;97.40
52044;DHT22;38053;53.100;6.078;2022-08-14T10:12:57;29.40;96.80
52044;DHT22;38053;53.100;6.078;2022-08-14T10:15:25;29.50;97.10
52044;DHT22;38053;53.100;6.078;2022-08-14T10:20:54;29.80;96.90
52044;DHT22;38053;53.100;6.078;2022-08-14T10:23:25;30.10;96.60
52044;DHT22;38053;53.100;6.078;2022-08-14T10:25:57;30.30;96.00
52044;DHT22;38053;53.100;6.078;2022-08-14T10:28:23;30.40;95.50
52044;DHT22;38053;53.100;6.078;2022-08-14T10:30:50;30.40;95.70
52044;DHT22;38053;53.100;6.078;2022-08-14T10:33:30;30.50;95.30
52044;DHT22;38053;53.100;6.078;2022-08-14T10:35:57;30.60;94.60
52044;DHT22;38053;53.100;6.078;2022-08-14T10:38:28;30.60;94.60
52044;DHT22;38053;53.100;6.078;2022-08-14T10:40:54;30.70;94.70
52044;DHT22;38053;53.100;6.078;2022-08-14T10:43:24;30.70;94.40
52044;DHT22;38053;53.100;6.078;2022-08-14T10:45:55;30.80;94.50
52044;DHT22;38053;53.100;6.078;2022-08-14T10:48:23;30.90;94.40
52044;DHT22;38053;53.100;6.078;2022-08-14T10:50:49;31.00;93.90
52044;DHT22;38053;53.100;6.078;2022-08-14T10:53:27;31.10;93.70
52044;DHT22;38053;53.100;6.078;2022-08-14T10:55:58;31.20;93.20
52044;DHT22;38053;53.100;6.078;2022-08-14T10:58:29;31.20;93.40
52044;DHT22;38053;53.100;6.078;2022-08-14T11:00:58;31.40;93.60
52044;DHT22;38053;53.100;6.078;2022-08-14T11:03:39;31.40;93.00
52044;DHT22;38053;53.100;6.078;2022-08-14T11:06:12;31.50;92.60
52044;DHT22;38053;53.100;6.078;2022-08-14T11:08:40;31.50;92.70
52044;DHT22;38053;53.100;6.078;2022-08-14T11:11:06;31.60;92.50
52044;DHT22;38053;53.100;6.078;2022-08-14T11:13:32;31.60;92.40
52044;DHT22;38053;53.100;6.078;2022-08-14T11:15:59;31.70;92.50
52044;DHT22;38053;53.100;6.078;2022-08-14T11:18:26;31.80;92.40
52044;DHT22;38053;53.100;6.078;2022-08-14T11:20:54;31.90;92.00
52044;DHT22;38053;53.100;6.078;2022-08-14T11:23:36;32.00;91.70
52044;DHT22;38053;53.100;6.078;2022-08-14T11:26:03;32.00;90.70
52044;DHT22;38053;53.100;6.078;2022-08-14T11:28:38;31.80;91.10
52044;DHT22;38053;53.100;6.078;2022-08-14T11:31:04;32.00;91.60
52044;DHT22;38053;53.100;6.078;2022-08-14T11:33:33;32.10;91.70
52044;DHT22;38053;53.100;6.078;2022-08-14T11:36:03;32.20;91.60
52044;DHT22;38053;53.100;6.078;2022-08-14T11:38:43;32.30;91.60
52044;DHT22;38053;53.100;6.078;2022-08-14T11:41:14;32.30;90.70
52044;DHT22;38053;53.100;6.078;2022-08-14T11:43:45;32.30;91.40
52044;DHT22;38053;53.100;6.078;2022-08-14T11:46:12;32.40;91.40
52044;DHT22;38053;53.100;6.078;2022-08-14T11:48:53;32.50;91.10
52044;DHT22;38053;53.100;6.078;2022-08-14T11:51:24;32.60;90.90
52044;DHT22;38053;53.100;6.078;2022-08-14T11:53:53;32.60;91.20
52044;DHT22;38053;53.100;6.078;2022-08-14T11:56:22;32.50;90.90
52044;DHT22;38053;53.100;6.078;2022-08-14T11:58:52;32.60;91.00
52044;DHT22;38053;53.100;6.078;2022-08-14T12:01:26;32.90;91.00
52044;DHT22;38053;53.100;6.078;2022-08-14T12:04:07;33.10;89.10
52044;DHT22;38053;53.100;6.078;2022-08-14T12:06:47;33.20;90.00
52044;DHT22;38053;53.100;6.078;2022-08-14T12:09:14;33.30;89.60
52044;DHT22;38053;53.100;6.078;2022-08-14T12:11:42;33.60;89.10
52044;DHT22;38053;53.100;6.078;2022-08-14T12:14:10;33.80;88.60
52044;DHT22;38053;53.100;6.078;2022-08-14T12:16:35;33.70;86.10
52044;DHT22;38053;53.100;6.078;2022-08-14T12:19:02;33.70;86.60
52044;DHT22;38053;53.100;6.078;2022-08-14T12:21:27;33.90;86.60
52044;DHT22;38053;53.100;6.078;2022-08-14T12:24:25;33.90;85.90
52044;DHT22;38053;53.100;6.078;2022-08-14T12:26:55;34.20;86.10
52044;DHT22;38053;53.100;6.078;2022-08-14T12:29:21;34.30;84.50
52044;DHT22;38053;53.100;6.078;2022-08-14T12:32:00;34.20;82.40
52044;DHT22;38053;53.100;6.078;2022-08-14T12:34:32;34.60;84.00
52044;DHT22;38053;53.100;6.078;2022-08-14T12:37:06;34.70;83.80
52044;DHT22;38053;53.100;6.078;2022-08-14T12:39:34;34.90;83.10
52044;DHT22;38053;53.100;6.078;2022-08-14T12:42:00;34.70;82.40
52044;DHT22;38053;53.100;6.078;2022-08-14T12:44:35;34.60;82.30
52044;DHT22;38053;53.100;6.078;2022-08-14T12:47:12;34.90;81.50
52044;DHT22;38053;53.100;6.078;2022-08-14T12:49:50;35.20;81.50
52044;DHT22;38053;53.100;6.078;2022-08-14T12:52:30;35.30;81.50
52044;DHT22;38053;53.100;6.078;2022-08-14T12:55:01;35.50;81.70
52044;DHT22;38053;53.100;6.078;2022-08-14T12:57:38;35.60;81.00
52044;DHT22;38053;53.100;6.078;2022-08-14T13:02:39;35.50;79.90
52044;DHT22;38053;53.100;6.078;2022-08-14T13:05:07;35.50;78.70
52044;DHT22;38053;53.100;6.078;2022-08-14T13:07:34;35.10;78.90
52044;DHT22;38053;53.100;6.078;2022-08-14T13:10:02;35.20;78.70
52044;DHT22;38053;53.100;6.078;2022-08-14T13:12:28;35.40;78.90
52044;DHT22;38053;53.100;6.078;2022-08-14T13:14:57;35.50;78.00
52044;DHT22;38053;53.100;6.078;2022-08-14T13:17:25;35.40;77.70
52044;DHT22;38053;53.100;6.078;2022-08-14T13:19:55;35.20;78.30
52044;DHT22;38053;53.100;6.078;2022-08-14T13:22:22;34.80;79.20
52044;DHT22;38053;53.100;6.078;2022-08-14T13:24:51;34.60;78.80
52044;DHT22;38053;53.100;6.078;2022-08-14T13:27:21;34.50;78.50
52044;DHT22;38053;53.100;6.078;2022-08-14T13:29:50;34.50;78.70
52044;DHT22;38053;53.100;6.078;2022-08-14T13:32:18;34.00;79.10
52044;DHT22;38053;53.100;6.078;2022-08-14T13:34:47;33.70;79.60
52044;DHT22;38053;53.100;6.078;2022-08-14T13:37:14;33.80;78.80
52044;DHT22;38053;53.100;6.078;2022-08-14T13:39:48;34.00;79.10
52044;DHT22;38053;53.100;6.078;2022-08-14T13:42:16;34.20;78.70
52044;DHT22;38053;53.100;6.078;2022-08-14T13:44:46;34.00;78.90
52044;DHT22;38053;53.100;6.078;2022-08-14T13:47:14;34.00;78.90
52044;DHT22;38053;53.100;6.078;2022-08-14T13:49:41;33.70;79.10
52044;DHT22;38053;53.100;6.078;2022-08-14T13:52:09;33.20;79.10
52044;DHT22;38053;53.100;6.078;2022-08-14T13:54:37;32.90;80.80
52044;DHT22;38053;53.100;6.078;2022-08-14T13:57:04;32.70;80.10
52044;DHT22;38053;53.100;6.078;2022-08-14T13:59:33;32.60;80.00
52044;DHT22;38053;53.100;6.078;2022-08-14T14:02:04;32.40;80.90
52044;DHT22;38053;53.100;6.078;2022-08-14T14:04:31;32.10;81.20
52044;DHT22;38053;53.100;6.078;2022-08-14T14:07:00;31.90;81.30
52044;DHT22;38053;53.100;6.078;2022-08-14T14:09:29;31.80;81.90
52044;DHT22;38053;53.100;6.078;2022-08-14T14:11:57;31.80;82.00
52044;DHT22;38053;53.100;6.078;2022-08-14T14:14:24;31.90;82.40
52044;DHT22;38053;53.100;6.078;2022-08-14T14:16:50;31.90;81.70
52044;DHT22;38053;53.100;6.078;2022-08-14T14:19:19;31.80;81.40
52044;DHT22;38053;53.100;6.078;2022-08-14T14:21:48;31.70;81.30
52044;DHT22;38053;53.100;6.078;2022-08-14T14:24:15;31.70;81.60
52044;DHT22;38053;53.100;6.078;2022-08-14T14:26:46;31.70;81.60
52044;DHT22;38053;53.100;6.078;2022-08-14T14:29:13;31.70;81.20
52044;DHT22;38053;53.100;6.078;2022-08-14T14:31:40;31.50;81.50
52044;DHT22;38053;53.100;6.078;2022-08-14T14:34:06;31.40;81.70
52044;DHT22;38053;53.100;6.078;2022-08-14T14:36:34;31.40;81.30
52044;DHT22;38053;53.100;6.078;2022-08-14T14:39:06;31.90;80.80
52044;DHT22;38053;53.100;6.078;2022-08-14T14:41:36;32.80;79.10
52044;DHT22;38053;53.100;6.078;2022-08-14T14:44:03;33.20;79.00
52044;DHT22;38053;53.100;6.078;2022-08-14T14:46:34;33.20;78.60
52044;DHT22;38053;53.100;6.078;2022-08-14T14:49:02;33.10;78.70
52044;DHT22;38053;53.100;6.078;2022-08-14T14:51:28;32.90;79.30
52044;DHT22;38053;53.100;6.078;2022-08-14T14:53:55;32.90;79.10
52044;DHT22;38053;53.100;6.078;2022-08-14T14:56:22;32.80;79.80
52044;DHT22;38053;53.100;6.078;2022-08-14T14:58:49;32.80;79.90
52044;DHT22;38053;53.100;6.078;2022-08-14T15:01:16;32.70;79.20
52044;DHT22;38053;53.100;6.078;2022-08-14T15:03:48;32.80;79.50
52044;DHT22;38053;53.100;6.078;2022-08-14T15:06:14;32.70;79.40
52044;DHT22;38053;53.100;6.078;2022-08-14T15:08:40;32.40;79.80
52044;DHT22;38053;53.100;6.078;2022-08-14T15:11:06;32.10;79.80
52044;DHT22;38053;53.100;6.078;2022-08-14T15:13:33;31.90;80.50
52044;DHT22;38053;53.100;6.078;2022-08-14T15:16:02;31.70;80.70
52044;DHT22;38053;53.100;6.078;2022-08-14T15:18:28;31.50;81.30
52044;DHT22;38053;53.100;6.078;2022-08-14T15:20:54;31.30;81.70
52044;DHT22;38053;53.100;6.078;2022-08-14T15:23:22;31.20;81.50
52044;DHT22;38053;53.100;6.078;2022-08-14T15:25:47;31.10;81.60
52044;DHT22;38053;53.100;6.078;2022-08-14T15:28:14;31.10;82.10
52044;DHT22;38053;53.100;6.078;2022-08-14T15:30:42;31.20;81.50
52044;DHT22;38053;53.100;6.078;2022-08-14T15:33:09;31.30;80.90
52044;DHT22;38053;53.100;6.078;2022-08-14T15:35:35;31.40;81.50
52044;DHT22;38053;53.100;6.078;2022-08-14T15:38:02;31.50;81.10
52044;DHT22;38053;53.100;6.078;2022-08-14T15:40:38;31.80;80.50
52044;DHT22;38053;53.100;6.078;2022-08-14T15:43:06;32.10;80.10
52044;DHT22;38053;53.100;6.078;2022-08-14T15:45:33;32.20;79.90
52044;DHT22;38053;53.100;6.078;2022-08-14T15:47:59;32.30;79.70
52044;DHT22;38053;53.100;6.078;2022-08-14T15:50:26;32.10;79.20
52044;DHT22;38053;53.100;6.078;2022-08-14T15:52:55;32.10;79.20
52044;DHT22;38053;53.100;6.078;2022-08-14T15:55:21;32.20;79.20
52044;DHT22;38053;53.100;6.078;2022-08-14T15:57:47;32.30;78.70
52044;DHT22;38053;53.100;6.078;2022-08-14T16:00:14;32.30;79.40
52044;DHT22;38053;53.100;6.078;2022-08-14T16:02:58;32.30;79.00